Time;durP1;ratioP1;P1;durP2;ratioP2;P2;SDS_P1;SDS_P2;PMS_P1;PMS_P2;Temp;Humidity;BMP_temperature;BMP_pressure;BME280_temperature;BME280_humidity;BME280_pressure;Samples;Min_cycle;Max_cycle;Signal;HPM_P1;HPM_P2
2021/04/11 03:01:58;;;;;;;11.22;5.30;;;;;;;4.97;82.96;101173.63;1753447;77;21159;-59
2021/04/11 03:04:27;;;;;;;9.03;5.08;;;;;;;4.97;82.44;101184.78;1739853;82;21139;-60
2021/04/11 03:07:03;;;;;;;9.15;4.83;;;;;;;5.02;83.15;101193.45;1738846;82;21607;-59
2021/04/11 03:09:39;;;;;;;9.23;5.10;;;;;;;5.07;81.61;101192.59;1728639;82;21270;-59
2021/04/11 03:12:10;;;;;;;9.58;5.20;;;;;;;5.09;81.72;101183.78;1734408;82;21073;-60
2021/04/11 03:14:42;;;;;;;8.60;5.03;;;;;;;5.11;81.59;101179.77;1727459;82;21246;-60
2021/04/11 03:17:17;;;;;;;9.60;5.67;;;;;;;5.15;81.58;101197.14;1712164;82;21083;-59
2021/04/11 03:19:56;;;;;;;9.25;5.47;;;;;;;5.22;79.63;101200.87;1722356;82;21212;-61
2021/04/11 03:22:24;;;;;;;8.35;5.10;;;;;;;5.33;78.70;101189.18;1739459;82;21222;-58
2021/04/11 03:24:53;;;;;;;8.90;5.40;;;;;;;5.41;77.48;101199.70;1732353;82;21504;-60
2021/04/11 03:27:28;;;;;;;9.25;5.40;;;;;;;5.47;77.06;101196.63;1734132;82;21100;-61
2021/04/11 03:30:27;;;;;;;9.03;5.67;;;;;;;5.53;75.60;101203.89;1707634;82;20997;-59
2021/04/11 03:33:04;;;;;;;10.50;5.53;;;;;;;5.62;74.76;101215.23;1741420;82;21266;-60
2021/04/11 03:35:35;;;;;;;9.70;5.15;;;;;;;5.67;74.02;101220.83;1683156;82;21458;-60
2021/04/11 03:38:04;;;;;;;10.70;5.95;;;;;;;5.70;73.15;101224.94;1740580;82;20986;-58
2021/04/11 03:40:35;;;;;;;10.32;5.37;;;;;;;5.77;73.24;101231.25;1728705;82;21173;-58
2021/04/11 03:43:09;;;;;;;9.10;5.15;;;;;;;5.90;71.80;101233.14;1738774;82;21049;-58
2021/04/11 03:45:37;;;;;;;9.20;6.03;;;;;;;6.09;70.17;101229.38;1724458;82;21212;-59
2021/04/11 03:48:33;;;;;;;11.38;6.45;;;;;;;6.39;67.94;101238.56;1741049;82;21119;-59
2021/04/11 03:51:23;;;;;;;11.18;5.97;;;;;;;6.67;64.48;101246.08;1703332;82;21218;-59
2021/04/11 03:54:11;;;;;;;11.15;5.65;;;;;;;7.04;60.79;101241.88;1740861;82;21195;-58
2021/04/11 03:56:45;;;;;;;12.47;7.05;;;;;;;7.50;58.88;101241.68;1731454;82;21048;-60
2021/04/11 03:59:23;;;;;;;10.93;6.83;;;;;;;7.97;55.98;101237.80;1742489;82;21645;-59
2021/04/11 04:01:55;;;;;;;10.63;5.80;;;;;;;8.36;54.17;101237.64;1713945;82;21042;-59
2021/04/11 04:04:26;;;;;;;8.95;5.87;;;;;;;8.79;51.67;101236.20;1730084;80;21132;-60
2021/04/11 04:07:12;;;;;;;8.88;5.05;;;;;;;9.24;50.44;101240.50;1747343;80;21125;-59
2021/04/11 04:09:46;;;;;;;7.83;5.37;;;;;;;9.70;48.69;101247.20;1753776;80;21092;-59
2021/04/11 04:12:54;;;;;;;8.37;5.33;;;;;;;10.16;46.39;101241.77;1754156;80;22088;-60
2021/04/11 04:15:43;;;;;;;8.33;5.10;;;;;;;10.45;45.83;101260.95;1753179;80;21233;-59
2021/04/11 04:18:49;;;;;;;9.13;5.90;;;;;;;10.88;44.38;101252.12;1693784;84;21077;-60
2021/04/11 04:21:33;;;;;;;7.50;4.93;;;;;;;11.26;43.41;101247.27;1708041;82;21289;-60
2021/04/11 04:24:33;;;;;;;9.20;4.80;;;;;;;11.42;42.23;101245.95;1697413;82;21600;-60
2021/04/11 04:27:28;;;;;;;8.87;5.33;;;;;;;11.42;42.23;101245.95;1698233;82;22136;-59
2021/04/11 04:30:23;;;;;;;8.63;4.90;;;;;;;11.67;42.02;101228.47;1835535;75;22257;-59
2021/04/11 04:33:41;;;;;;;8.93;5.07;;;;;;;11.93;40.83;101234.81;1799504;77;21038;-61
2021/04/11 04:36:15;;;;;;;9.20;5.17;;;;;;;12.25;40.66;101231.75;1734623;80;21739;-61
2021/04/11 04:39:09;;;;;;;9.33;5.10;;;;;;;12.73;39.83;101231.19;1734768;80;21768;-60
2021/04/11 04:41:47;;;;;;;8.23;5.30;;;;;;;13.09;38.73;101225.36;1775438;78;21716;-61
2021/04/11 04:44:46;;;;;;;7.47;4.20;;;;;;;13.48;38.20;101221.28;1783484;78;21006;-60
2021/04/11 04:47:20;;;;;;;7.17;4.73;;;;;;;13.70;37.35;101229.27;1806897;77;21008;-61
2021/04/11 04:50:28;;;;;;;9.00;5.13;;;;;;;13.92;36.74;101221.01;1797312;77;21367;-61
2021/04/11 04:53:26;;;;;;;7.17;4.40;;;;;;;14.03;36.43;101232.35;1810195;77;21567;-60
2021/04/11 04:55:58;;;;;;;7.47;4.40;;;;;;;14.29;36.16;101219.58;1803809;77;21147;-60
2021/04/11 04:58:39;;;;;;;11.10;5.20;;;;;;;14.65;35.61;101226.66;1753137;80;21278;-60
2021/04/11 05:01:21;;;;;;;6.97;4.40;;;;;;;14.99;35.05;101234.36;1759324;78;21135;-60
2021/04/11 05:03:55;;;;;;;9.73;5.40;;;;;;;15.30;34.12;101237.95;1756517;80;22879;-60
2021/04/11 05:06:29;;;;;;;7.07;4.40;;;;;;;15.48;34.33;101242.75;1741975;81;21169;-60
2021/04/11 05:09:22;;;;;;;6.57;4.33;;;;;;;15.52;34.14;101243.98;1753444;80;21235;-60
2021/04/11 05:12:06;;;;;;;7.30;4.43;;;;;;;14.82;34.29;101245.62;1766804;79;21542;-60
2021/04/11 05:14:57;;;;;;;6.37;4.30;;;;;;;13.65;35.63;101257.31;1749665;80;21069;-60
2021/04/11 05:17:32;;;;;;;7.73;4.87;;;;;;;12.49;37.37;101271.84;1762517;79;21209;-60
2021/04/11 05:20:12;;;;;;;7.60;4.93;;;;;;;11.39;39.29;101274.17;1761887;79;20962;-61
2021/04/11 05:23:02;;;;;;;7.83;4.80;;;;;;;10.69;41.04;101273.27;1746706;80;21570;-59
2021/04/11 05:25:40;;;;;;;7.30;4.93;;;;;;;10.24;42.18;101273.06;1748610;80;21710;-62
2021/04/11 05:28:14;;;;;;;6.60;4.50;;;;;;;9.62;44.40;101276.25;1729870;81;21546;-58
2021/04/11 05:31:05;;;;;;;8.57;5.00;;;;;;;9.62;44.40;101276.25;1752045;80;22292;-58
2021/04/11 05:33:36;;;;;;;8.67;4.77;;;;;;;9.49;45.06;101276.66;1745155;80;21245;-60
2021/04/11 05:36:14;;;;;;;;;;;;;;;9.34;45.68;101273.77;1751048;81;21312;-61
2021/04/11 05:38:51;;;;;;;8.33;5.27;;;;;;;9.18;46.35;101276.23;1719296;81;20221;-61
2021/04/11 05:41:24;;;;;;;9.13;4.53;;;;;;;9.00;47.03;101282.23;1753362;80;21355;-61
2021/04/11 05:44:23;;;;;;;8.60;4.60;;;;;;;8.88;47.67;101275.61;1764186;78;21185;-61
2021/04/11 05:46:59;;;;;;;8.03;4.67;;;;;;;8.76;48.26;101268.99;1705720;81;21719;-62
2021/04/11 05:49:39;;;;;;;6.78;4.55;;;;;;;8.69;48.83;101270.53;1766810;78;21553;-60
2021/04/11 05:52:12;;;;;;;7.92;4.45;;;;;;;8.69;49.17;101268.75;1757501;78;21268;-59
2021/04/11 05:54:46;;;;;;;8.95;4.78;;;;;;;8.71;49.27;101269.89;1765803;78;21009;-60
2021/04/11 05:57:25;;;;;;;7.17;4.22;;;;;;;8.74;49.36;101263.11;1772345;78;21263;-59
2021/04/11 06:00:02;;;;;;;6.83;3.65;;;;;;;8.82;50.00;101266.27;1767967;79;21084;-60
2021/04/11 06:02:39;;;;;;;8.20;4.70;;;;;;;8.93;50.27;101275.98;1776173;78;20940;-60
2021/04/11 06:05:17;;;;;;;7.05;4.00;;;;;;;8.98;49.50;101271.66;1781832;78;21022;-65
2021/04/11 06:08:00;;;;;;;6.37;4.28;;;;;;;9.00;49.52;101271.83;1762157;80;22469;-59
2021/04/11 06:10:44;;;;;;;7.95;4.30;;;;;;;9.00;49.58;101269.72;1772478;80;21548;-59
2021/04/11 06:13:29;;;;;;;8.98;4.25;;;;;;;9.04;49.98;101276.74;1777930;78;21086;-60
2021/04/11 06:16:12;;;;;;;8.10;4.55;;;;;;;9.12;49.68;101280.72;1771027;78;21626;-60
2021/04/11 06:18:43;;;;;;;7.42;4.17;;;;;;;9.21;49.45;101281.95;1753945;80;20933;-59
2021/04/11 06:21:33;;;;;;;8.20;3.77;;;;;;;9.36;49.67;101277.05;1771189;80;20973;-59
2021/04/11 06:24:22;;;;;;;6.33;3.98;;;;;;;9.52;48.88;101276.36;1758217;79;21467;-62
2021/04/11 06:27:02;;;;;;;8.20;4.03;;;;;;;9.71;48.13;101271.45;1767888;78;20933;-60
2021/04/11 06:29:36;;;;;;;7.12;3.80;;;;;;;9.80;47.25;101263.20;1762548;78;21127;-65
2021/04/11 06:32:07;;;;;;;7.15;3.60;;;;;;;9.89;46.99;101255.79;1746556;80;21642;-61
2021/04/11 06:34:45;;;;;;;8.67;4.00;;;;;;;10.01;46.66;101253.73;1776929;79;21131;-60
2021/04/11 06:37:18;;;;;;;6.60;3.90;;;;;;;10.14;46.03;101249.72;1738923;80;21784;-66
2021/04/11 06:39:48;;;;;;;9.20;5.15;;;;;;;10.26;45.84;101245.56;1762107;80;21414;-61
2021/04/11 06:42:41;;;;;;;10.63;7.13;;;;;;;10.32;45.36;101234.03;1739235;80;21046;-62
2021/04/11 06:45:31;;;;;;;19.70;10.97;;;;;;;10.39;45.81;101235.05;1759821;80;21435;-61
2021/04/11 06:48:39;;;;;;;23.57;13.77;;;;;;;10.70;45.53;101233.98;1747852;80;21293;-61
2021/04/11 06:51:49;;;;;;;17.07;9.80;;;;;;;11.05;44.23;101224.73;1747269;79;22333;-61
2021/04/11 06:55:03;;;;;;;12.30;8.03;;;;;;;11.24;42.96;101213.97;1750067;79;21409;-63
2021/04/11 06:57:55;;;;;;;8.23;4.50;;;;;;;11.32;42.93;101218.38;1740068;79;22819;-61
2021/04/11 07:00:47;;;;;;;9.43;4.83;;;;;;;11.34;42.33;101217.24;1756506;79;21530;-65
2021/04/11 07:03:46;;;;;;;11.05;4.12;;;;;;;11.26;42.39;101221.17;1746177;79;21936;-61
2021/04/11 07:07:09;;;;;;;8.90;3.87;;;;;;;11.29;42.32;101211.70;1750776;79;22140;-61
2021/04/11 07:09:49;;;;;;;5.67;3.37;;;;;;;11.34;42.73;101215.94;1753442;79;21337;-59
2021/04/11 07:13:16;;;;;;;7.63;3.50;;;;;;;11.56;42.19;101210.53;1812959;78;22783;-62
2021/04/11 07:16:14;;;;;;;7.70;3.17;;;;;;;11.68;42.20;101212.30;1782812;78;20927;-63
2021/04/11 07:19:19;;;;;;;6.23;2.93;;;;;;;11.83;41.42;101200.22;1792772;78;22045;-60
2021/04/11 07:22:10;;;;;;;6.63;2.97;;;;;;;11.86;41.36;101199.88;1732305;81;21328;-60
2021/04/11 07:25:13;;;;;;;5.47;3.17;;;;;;;12.05;41.12;101190.02;1808028;76;22703;-64
2021/04/11 07:28:02;;;;;;;6.67;2.90;;;;;;;12.08;41.03;101174.79;1781132;78;21061;-63
2021/04/11 07:30:48;;;;;;;7.63;3.20;;;;;;;12.26;40.92;101169.32;1783207;78;21345;-63
2021/04/11 07:33:37;;;;;;;5.70;2.80;;;;;;;12.75;40.62;101165.09;1789315;77;21945;-60
2021/04/11 07:36:22;;;;;;;5.73;3.30;;;;;;;12.75;40.62;101165.09;1781917;77;21450;-61
2021/04/11 07:39:08;;;;;;;7.27;2.90;;;;;;;13.24;39.13;101150.32;1791101;78;21570;-61
2021/04/11 07:41:51;;;;;;;8.50;2.80;;;;;;;13.24;39.13;101150.32;1777724;78;21557;-61
2021/04/11 07:44:48;;;;;;;7.13;2.80;;;;;;;13.47;38.36;101138.97;1789390;78;21460;-61
2021/04/11 07:47:54;;;;;;;12.33;2.50;;;;;;;13.72;37.67;101152.61;1782682;78;21879;-61
2021/04/11 07:51:02;;;;;;;9.80;2.70;;;;;;;14.06;37.46;101155.97;1786156;79;21734;-62
2021/04/11 07:54:12;;;;;;;7.17;2.60;;;;;;;14.47;36.32;101134.39;1783396;78;21659;-62
2021/04/11 08:00:10;;;;;;;17.00;3.83;;;;;;;15.21;34.57;101130.91;1643256;85;21205;-61
2021/04/11 08:03:07;;;;;;;5.57;2.40;;;;;;;15.58;34.34;101127.60;1644870;85;21169;-63
2021/04/11 08:06:06;;;;;;;7.37;2.37;;;;;;;16.00;33.62;101125.28;1639376;85;21238;-63
2021/04/11 08:09:21;;;;;;;5.67;2.67;;;;;;;16.36;31.00;101112.81;1647976;85;21177;-63
2021/04/11 08:12:27;;;;;;;8.43;1.97;;;;;;;16.51;31.34;101113.44;1643118;85;21538;-64
2021/04/11 08:15:19;;;;;;;24.87;4.40;;;;;;;17.17;29.11;101109.52;1654454;85;22686;-64
2021/04/11 08:18:12;;;;;;;14.57;2.30;;;;;;;17.57;27.59;101109.91;1616562;87;21181;-67
2021/04/11 08:21:08;;;;;;;7.43;2.00;;;;;;;17.52;26.42;101130.31;1620134;87;21183;-65
2021/04/11 08:24:11;;;;;;;7.87;2.20;;;;;;;16.78;26.57;101116.45;1612665;87;21243;-64
2021/04/11 08:27:01;;;;;;;5.97;1.93;;;;;;;16.11;27.10;101126.53;1642232;85;21679;-64
2021/04/11 08:30:16;;;;;;;7.00;2.10;;;;;;;15.42;27.90;101100.31;1594893;87;22542;-70
2021/04/11 08:33:24;;;;;;;6.30;2.07;;;;;;;14.98;28.73;101108.03;1644366;85;21050;-63
2021/04/11 08:36:40;;;;;;;8.03;2.30;;;;;;;14.82;28.75;101107.31;1645520;85;21624;-62
2021/04/11 08:40:01;;;;;;;9.20;2.27;;;;;;;14.59;28.65;101110.66;1647929;85;21242;-62
2021/04/11 08:43:18;;;;;;;4.58;1.80;;;;;;;14.44;28.88;101099.38;1642994;85;21258;-65
2021/04/11 08:46:31;;;;;;;4.97;1.80;;;;;;;14.43;29.55;101096.42;1646251;85;21683;-63
2021/04/11 08:49:11;;;;;;;4.20;2.10;;;;;;;14.70;29.13;101106.68;1616085;87;21853;-64
2021/04/11 08:51:48;;;;;;;6.63;2.67;;;;;;;14.90;28.75;101109.48;1586484;88;21043;-62
2021/04/11 08:54:39;;;;;;;6.20;1.90;;;;;;;14.94;28.98;101099.72;1646724;84;21181;-68
2021/04/11 08:57:23;;;;;;;4.13;1.87;;;;;;;14.94;29.03;101092.35;1666760;84;21065;-61
2021/04/11 09:00:24;;;;;;;3.50;1.60;;;;;;;14.82;28.66;101091.56;1636261;85;21245;-64
2021/04/11 09:03:19;;;;;;;3.60;1.47;;;;;;;14.73;28.33;101087.94;1614284;87;21188;-62
2021/04/11 09:06:25;;;;;;;8.83;2.27;;;;;;;14.65;28.45;101091.51;1644103;85;21041;-62
2021/04/11 09:09:21;;;;;;;4.70;2.13;;;;;;;14.51;27.70;101101.60;1629778;86;21249;-61
2021/04/11 09:12:31;;;;;;;3.47;1.73;;;;;;;14.31;28.41;101103.48;1683128;83;21810;-66
2021/04/11 09:15:33;;;;;;;3.60;1.60;;;;;;;14.25;29.40;101100.81;1630029;86;21234;-61
2021/04/11 09:18:22;;;;;;;3.60;2.00;;;;;;;14.34;29.75;101095.24;1665495;83;22228;-61
2021/04/11 09:21:17;;;;;;;3.77;2.00;;;;;;;14.46;30.07;101073.76;1632430;86;21815;-62
2021/04/11 09:24:12;;;;;;;4.60;1.80;;;;;;;15.04;29.42;101043.75;1659222;84;21793;-59
2021/04/11 09:27:04;;;;;;;8.27;2.47;;;;;;;15.04;29.42;101043.75;1673847;82;21017;-60
2021/04/11 09:30:07;;;;;;;5.97;1.97;;;;;;;15.37;28.98;101020.77;1644664;86;21555;-63
2021/04/11 09:33:15;;;;;;;8.57;2.10;;;;;;;15.90;28.35;101002.56;1687391;83;21657;-62
2021/04/11 09:36:12;;;;;;;6.23;1.80;;;;;;;16.56;26.96;101005.75;1644846;86;21481;-61
2021/04/11 09:39:04;;;;;;;20.87;3.57;;;;;;;17.27;25.79;101002.36;1684556;83;21134;-62
2021/04/11 09:42:09;;;;;;;;;;;;;;;17.78;25.00;101004.70;1645703;86;21103;-65
2021/04/11 09:45:12;;;;;;;16.73;2.80;;;;;;;18.17;24.62;100995.69;1673757;84;21203;-67
2021/04/11 09:47:53;;;;;;;;;;;;;;;18.31;24.65;101006.96;1635506;86;21237;-72
2021/04/11 09:50:49;;;;;;;4.67;2.07;;;;;;;18.12;24.45;101019.28;1662653;83;20223;-64
2021/04/11 09:53:43;;;;;;;5.97;1.80;;;;;;;17.99;24.35;100994.62;1633462;86;21183;-71
2021/04/11 09:56:32;;;;;;;4.30;2.00;;;;;;;18.01;25.10;101005.45;1663589;83;21686;-70
2021/04/11 09:59:33;;;;;;;4.57;2.10;;;;;;;18.30;24.75;100973.16;1663657;84;22251;-70
2021/04/11 10:02:44;;;;;;;15.50;3.12;;;;;;;18.60;24.49;100985.66;1662083;84;21184;-70
2021/04/11 10:05:31;;;;;;;6.03;2.30;;;;;;;18.72;24.51;100991.89;1629618;86;21219;-67
2021/04/11 10:08:37;;;;;;;4.00;2.10;;;;;;;18.90;24.46;100995.04;1663048;84;21030;-64
2021/04/11 10:11:11;;;;;;;7.67;2.43;;;;;;;18.97;24.43;100997.09;1663886;85;21080;-71
2021/04/11 10:14:01;;;;;;;4.70;2.00;;;;;;;18.77;24.25;100996.52;1620549;86;21457;-65
2021/04/11 10:16:36;;;;;;;7.10;2.40;;;;;;;18.52;24.86;100994.67;1589527;88;21161;-70
2021/04/11 10:19:19;;;;;;;5.03;1.80;;;;;;;18.27;25.36;100989.42;1619644;87;21099;-63
2021/04/11 10:22:24;;;;;;;5.63;1.90;;;;;;;17.97;24.72;100993.20;1617692;87;21651;-62
2021/04/11 10:25:15;;;;;;;11.87;2.77;;;;;;;17.55;25.29;100983.59;1539740;91;21684;-62
2021/04/11 10:28:04;;;;;;;5.90;2.10;;;;;;;17.24;25.76;100990.42;1815217;76;23370;-65
2021/04/11 10:30:35;;;;;;;4.83;2.03;;;;;;;17.13;26.25;100984.48;1791213;78;21658;-61
2021/04/11 10:33:11;;;;;;;;;;;;;;;17.14;26.31;100978.20;1796220;78;21187;-61
2021/04/11 10:36:18;;;;;;;5.03;1.80;;;;;;;17.15;25.85;100978.48;1790305;78;20141;-62
2021/04/11 10:38:54;;;;;;;5.83;1.87;;;;;;;17.02;25.70;100972.77;1788456;79;21030;-64
2021/04/11 10:41:43;;;;;;;6.23;2.07;;;;;;;16.86;25.78;100980.30;1786264;79;20963;-62
2021/04/11 10:44:46;;;;;;;7.13;1.67;;;;;;;16.87;25.89;100971.41;1768015;79;21464;-61
2021/04/11 10:47:41;;;;;;;8.60;2.30;;;;;;;16.93;26.02;100991.14;1786964;77;21450;-69
2021/04/11 10:50:34;;;;;;;7.33;2.07;;;;;;;17.10;25.62;100973.05;1747423;79;20986;-66
2021/04/11 10:53:29;;;;;;;3.50;1.53;;;;;;;17.25;25.56;100977.55;1745030;79;21591;-63
2021/04/11 10:56:43;;;;;;;3.70;1.67;;;;;;;17.50;25.36;100963.63;1756578;81;21135;-63
2021/04/11 10:59:56;;;;;;;7.93;1.60;;;;;;;17.60;25.12;100961.34;1725034;80;21641;-62
2021/04/11 11:02:42;;;;;;;6.90;1.80;;;;;;;17.67;24.94;100964.75;1689922;83;21396;-62
2021/04/11 11:05:56;;;;;;;5.90;1.97;;;;;;;17.66;24.65;100964.47;1746878;80;21613;-62
2021/04/11 11:08:57;;;;;;;5.67;1.80;;;;;;;17.58;25.04;100961.25;1843632;76;23285;-64
2021/04/11 11:11:43;;;;;;;4.87;1.40;;;;;;;17.37;25.15;100963.71;1775766;78;20951;-64
2021/04/11 11:14:37;;;;;;;3.27;1.63;;;;;;;17.17;25.29;100954.59;1805206;78;21371;-62
2021/04/11 11:17:17;;;;;;;4.53;1.50;;;;;;;17.02;25.38;100950.38;1751114;78;21382;-62
2021/04/11 11:20:26;;;;;;;6.60;1.65;;;;;;;17.05;25.62;100946.53;1794080;77;21042;-61
2021/04/11 11:23:32;;;;;;;4.57;2.00;;;;;;;17.31;25.07;100938.19;1795558;78;20978;-61
2021/04/11 11:26:45;;;;;;;4.57;1.87;;;;;;;17.75;25.00;100934.72;1802139;78;21055;-60
2021/04/11 11:29:48;;;;;;;11.97;2.70;;;;;;;18.07;24.87;100932.03;1797223;77;21712;-60
2021/04/11 11:32:54;;;;;;;6.93;1.53;;;;;;;18.44;24.47;100939.52;1808821;78;21003;-60
2021/04/11 11:35:22;;;;;;;3.00;1.50;;;;;;;18.90;24.04;100930.31;1805920;78;20992;-63
2021/04/11 11:37:59;;;;;;;3.73;1.57;;;;;;;19.20;23.81;100915.81;1793820;78;21191;-61
2021/04/11 11:40:54;;;;;;;3.30;1.30;;;;;;;19.35;23.18;100908.28;1791588;78;21140;-60
2021/04/11 11:43:34;;;;;;;4.37;1.57;;;;;;;19.21;23.23;100913.48;1796007;78;21100;-60
2021/04/11 11:46:57;;;;;;;4.47;2.20;;;;;;;19.12;23.25;100903.72;1769955;79;21011;-61
2021/04/11 11:49:36;;;;;;;23.53;2.97;;;;;;;19.15;23.50;100905.13;1768323;79;21126;-61
2021/04/11 11:52:21;;;;;;;5.80;1.63;;;;;;;18.95;23.35;100898.77;1761510;79;21603;-65
2021/04/11 11:55:14;;;;;;;6.00;1.60;;;;;;;18.95;23.44;100906.70;1757077;79;21061;-61
2021/04/11 11:58:12;;;;;;;3.83;1.20;;;;;;;18.81;23.41;100918.45;1761034;79;21392;-62
2021/04/11 12:00:46;;;;;;;4.27;1.40;;;;;;;18.73;23.29;100916.91;1763712;79;21127;-63
2021/04/11 12:03:36;;;;;;;4.23;1.80;;;;;;;18.61;23.10;100900.97;1735654;80;21015;-62
2021/04/11 12:06:13;;;;;;;3.85;1.60;;;;;;;18.55;23.72;100921.64;1765446;79;21133;-64
2021/04/11 12:09:15;;;;;;;5.77;1.80;;;;;;;18.71;23.67;100921.11;1719483;81;21153;-63
2021/04/11 12:11:52;;;;;;;6.10;2.43;;;;;;;18.80;23.94;100907.59;1755456;79;22327;-65
2021/04/11 12:14:33;;;;;;;6.93;1.87;;;;;;;19.11;23.74;100903.44;1756523;79;21114;-63
2021/04/11 12:17:33;;;;;;;6.23;3.10;;;;;;;19.00;23.00;100906.03;1749497;79;20952;-63
2021/04/11 12:20:10;;;;;;;4.92;2.12;;;;;;;18.69;23.71;100907.27;1764626;80;21584;-65
2021/04/11 12:22:49;;;;;;;4.93;2.43;;;;;;;18.62;23.79;100901.77;1759060;79;21086;-66
2021/04/11 12:25:23;;;;;;;7.10;2.60;;;;;;;18.62;23.55;100884.09;1781478;78;23030;-64
2021/04/11 12:27:52;;;;;;;4.60;2.60;;;;;;;18.39;23.49;100882.62;1783411;78;21061;-63
2021/04/11 12:30:32;;;;;;;9.13;3.40;;;;;;;18.23;23.93;100877.41;1804227;78;21482;-64
2021/04/11 12:33:41;;;;;;;6.73;3.00;;;;;;;18.13;24.06;100871.30;1781842;78;21046;-64
2021/04/11 12:36:34;;;;;;;4.20;2.17;;;;;;;18.04;24.05;100881.05;1789300;78;21492;-65
2021/04/11 12:39:25;;;;;;;5.17;2.60;;;;;;;18.02;24.20;100877.80;1791644;79;22279;-63
2021/04/11 12:42:22;;;;;;;;;;;;;;;17.96;24.23;100881.61;1732646;81;21064;-64
2021/04/11 12:45:01;;;;;;;5.20;2.00;;;;;;;17.84;24.71;100880.70;1760802;80;20231;-64
2021/04/11 12:47:59;;;;;;;3.80;1.87;;;;;;;17.72;24.76;100882.38;1795405;78;21200;-64
2021/04/11 12:50:38;;;;;;;3.80;1.90;;;;;;;17.66;25.07;100897.75;1794065;78;21595;-64
2021/04/11 12:53:23;;;;;;;2.77;1.57;;;;;;;17.64;25.06;100878.17;1732333;81;21418;-64
2021/04/11 12:56:05;;;;;;;3.43;1.80;;;;;;;17.71;25.28;100871.02;1734080;82;21399;-63
2021/04/11 12:58:37;;;;;;;4.08;2.00;;;;;;;17.79;25.10;100881.04;1750923;80;21154;-64
2021/04/11 13:01:25;;;;;;;6.10;2.20;;;;;;;17.97;25.26;100879.78;1742220;81;21015;-65
2021/04/11 13:04:01;;;;;;;3.73;1.80;;;;;;;18.12;25.24;100884.20;1747887;80;20926;-67
2021/04/11 13:06:36;;;;;;;6.03;2.17;;;;;;;18.16;25.21;100888.02;1709575;81;21067;-63
2021/04/11 13:09:50;;;;;;;4.83;2.13;;;;;;;18.05;24.66;100862.34;1745268;80;21101;-63
2021/04/11 13:12:54;;;;;;;9.97;3.00;;;;;;;17.88;24.98;100870.50;1796544;78;20975;-62
2021/04/11 13:16:09;;;;;;;5.73;2.30;;;;;;;17.90;25.64;100870.59;1796654;78;21007;-64
2021/04/11 13:18:53;;;;;;;6.07;1.97;;;;;;;18.07;25.12;100868.72;1800217;79;21030;-62
2021/04/11 13:21:35;;;;;;;4.97;1.83;;;;;;;17.90;25.52;100863.20;1786148;78;20967;-63
2021/04/11 13:24:09;;;;;;;7.10;2.27;;;;;;;17.51;25.29;100875.64;1795555;78;21192;-63
2021/04/11 13:27:03;;;;;;;8.37;2.47;;;;;;;17.20;25.65;100864.08;1796696;79;20982;-63
2021/04/11 13:30:14;;;;;;;4.97;2.20;;;;;;;16.97;26.06;100865.09;1790879;78;21199;-62
2021/04/11 13:33:00;;;;;;;6.87;3.30;;;;;;;16.69;26.04;100861.45;1805886;78;22045;-63
2021/04/11 13:35:35;;;;;;;5.87;3.50;;;;;;;16.45;26.00;100853.74;1795590;79;22371;-62
2021/04/11 13:38:10;;;;;;;5.20;2.63;;;;;;;16.34;26.41;100859.12;1799020;79;21063;-63
2021/04/11 13:40:38;;;;;;;5.07;3.07;;;;;;;16.28;26.83;100856.80;1792625;78;21200;-62
2021/04/11 13:43:32;;;;;;;5.73;2.80;;;;;;;16.18;26.82;100856.43;1787646;79;21019;-63
2021/04/11 13:46:12;;;;;;;4.90;2.40;;;;;;;16.12;27.18;100849.86;1760935;79;22043;-62
2021/04/11 13:49:12;;;;;;;5.10;2.50;;;;;;;16.05;27.44;100855.13;1784825;79;21244;-62
2021/04/11 13:51:57;;;;;;;3.87;2.05;;;;;;;16.01;27.97;100860.48;1785975;79;21097;-61
2021/04/11 13:54:49;;;;;;;5.57;2.03;;;;;;;15.98;27.57;100855.62;1804922;78;20998;-63
2021/04/11 13:58:03;;;;;;;5.60;2.43;;;;;;;15.96;27.07;100847.16;1801462;78;20996;-62
2021/04/11 14:01:04;;;;;;;5.23;2.30;;;;;;;15.92;27.42;100856.47;1797358;78;20979;-62
2021/04/11 14:04:01;;;;;;;5.87;2.77;;;;;;;15.87;27.92;100853.11;1801957;78;21209;-62
2021/04/11 14:06:34;;;;;;;5.43;2.13;;;;;;;15.90;27.66;100868.98;1766615;78;21002;-63
2021/04/11 14:09:26;;;;;;;5.28;2.42;;;;;;;15.88;27.72;100860.52;1787439;79;21151;-64
2021/04/11 14:12:08;;;;;;;5.07;2.47;;;;;;;15.86;27.60;100867.78;1720828;78;20973;-62
2021/04/11 14:14:46;;;;;;;5.03;2.07;;;;;;;15.84;27.59;100867.19;1793354;78;21207;-64
2021/04/11 14:17:21;;;;;;;3.93;1.87;;;;;;;15.77;27.41;100871.93;1790495;79;21070;-62
2021/04/11 14:20:10;;;;;;;5.27;1.70;;;;;;;15.67;27.63;100874.64;1796083;79;21543;-62
2021/04/11 14:22:43;;;;;;;5.20;1.80;;;;;;;15.55;27.42;100883.61;1786633;79;20991;-62
2021/04/11 14:25:25;;;;;;;6.57;2.07;;;;;;;15.41;27.54;100867.00;1790561;79;21050;-62
2021/04/11 14:28:35;;;;;;;4.70;1.73;;;;;;;15.27;27.81;100874.06;1792349;79;21413;-62
2021/04/11 14:31:38;;;;;;;4.43;2.10;;;;;;;15.12;28.36;100873.41;1788937;79;21124;-65
2021/04/11 14:34:25;;;;;;;5.90;2.17;;;;;;;14.83;29.16;100868.76;1792371;79;21054;-61
2021/04/11 14:37:07;;;;;;;4.77;1.77;;;;;;;14.83;29.16;100868.76;1788638;79;21210;-62
2021/04/11 14:39:40;;;;;;;5.27;2.43;;;;;;;14.54;29.57;100878.20;1793798;79;21714;-62
2021/04/11 14:42:25;;;;;;;5.30;2.10;;;;;;;14.54;29.57;100878.20;1794153;79;21070;-61
2021/04/11 14:45:07;;;;;;;3.47;1.97;;;;;;;14.42;29.70;100875.78;1797735;79;21793;-60
2021/04/11 14:47:49;;;;;;;4.97;2.20;;;;;;;14.30;29.94;100893.88;1797396;78;21623;-64
2021/04/11 14:50:28;;;;;;;3.30;1.55;;;;;;;14.19;30.14;100889.16;1788530;79;27541;-61
2021/04/11 14:53:26;;;;;;;8.43;1.93;;;;;;;14.09;30.40;100896.86;1795002;79;21074;-61
2021/04/11 14:56:12;;;;;;;4.87;1.73;;;;;;;14.01;30.68;100906.16;1787107;79;21664;-63
2021/04/11 14:59:09;;;;;;;5.67;2.83;;;;;;;13.86;31.15;100907.56;1785786;79;22426;-65
2021/04/11 15:01:43;;;;;;;6.67;2.57;;;;;;;13.86;31.15;100907.56;1777056;79;21777;-62
2021/04/11 15:04:24;;;;;;;3.73;2.00;;;;;;;13.79;31.27;100909.82;1782245;79;21265;-62
2021/04/11 15:07:17;;;;;;;6.30;2.60;;;;;;;13.66;31.94;100896.58;1779028;79;21642;-64
2021/04/11 15:09:54;;;;;;;3.70;1.73;;;;;;;13.58;31.74;100893.09;1773808;79;21667;-61
2021/04/11 15:12:29;;;;;;;3.80;2.10;;;;;;;13.58;31.74;100893.09;1770041;79;21401;-62
2021/04/11 15:15:22;;;;;;;5.90;2.37;;;;;;;13.55;31.83;100889.52;1789466;78;21697;-63
2021/04/11 15:18:20;;;;;;;6.17;3.47;;;;;;;13.53;32.20;100892.84;1797477;78;21249;-61
2021/04/11 15:21:26;;;;;;;4.63;2.50;;;;;;;13.48;32.45;100890.45;1809313;78;21289;-63
2021/04/11 15:23:59;;;;;;;5.47;2.87;;;;;;;13.48;32.45;100890.45;1750772;79;22351;-62
2021/04/11 15:27:02;;;;;;;7.13;2.97;;;;;;;13.43;32.44;100899.38;1805476;79;22824;-62
2021/04/11 15:29:57;;;;;;;6.63;3.03;;;;;;;13.39;32.65;100898.44;1800369;78;21924;-63
2021/04/11 15:32:40;;;;;;;7.90;3.50;;;;;;;13.33;32.68;100907.05;1818229;77;21261;-61
2021/04/11 15:35:28;;;;;;;5.60;3.37;;;;;;;13.28;32.84;100900.23;1805273;78;21399;-61
2021/04/11 15:38:05;;;;;;;6.73;3.93;;;;;;;13.22;33.12;100891.80;1810177;78;21371;-63
2021/04/11 15:40:50;;;;;;;6.77;4.20;;;;;;;13.15;33.40;100890.41;1812803;78;21363;-63
2021/04/11 15:43:29;;;;;;;8.17;3.70;;;;;;;13.10;33.61;100892.73;1809939;78;21423;-62
2021/04/11 15:46:36;;;;;;;8.30;3.90;;;;;;;13.06;33.84;100898.03;1808462;78;22071;-63
2021/04/11 15:49:25;;;;;;;8.40;4.17;;;;;;;12.95;34.29;100895.08;1813196;78;21547;-64
2021/04/11 15:52:10;;;;;;;6.90;3.37;;;;;;;12.88;34.71;100876.20;1811116;78;21460;-63
2021/04/11 15:55:00;;;;;;;5.53;3.33;;;;;;;12.88;34.71;100876.20;1812744;78;21346;-62
2021/04/11 15:57:35;;;;;;;7.03;3.22;;;;;;;12.82;34.64;100880.84;1789693;78;21395;-63
2021/04/11 16:00:17;;;;;;;6.17;3.40;;;;;;;12.76;34.93;100875.02;1806987;78;21130;-64
2021/04/11 16:06:30;;;;;;;5.83;3.33;;;;;;;12.65;35.13;100860.62;1743307;80;21866;-62
2021/04/11 16:09:05;;;;;;;7.03;3.77;;;;;;;12.60;35.17;100868.67;1737397;80;21385;-62
2021/04/11 16:12:03;;;;;;;7.47;3.37;;;;;;;12.55;35.34;100864.00;1745270;80;21940;-61
2021/04/11 16:14:37;;;;;;;6.30;3.70;;;;;;;12.51;35.50;100862.73;1736992;81;21272;-61